Camooweal, Australia
Current Conditions -  °F | °C
As of 12:30 PM on Monday 24 Nov 2014 (Local Time) from YBMA Reporting Station
Thunderstorm Thunderstorm  
Wind Chill: 86°   Ceiling: 30000
Heat Index: 87°   Visibility: 6mi
Dew Point: 64°   Wind: 16mph
Humidity: 48%   Direction: 290°WNW
Pressure: 29.85"   Gusts: NA
Location:  19.92°S, 138.12°E
Report Text: YBMA 240230Z 29014KT 9999 TS FEW070 BKN300 FEW080CB 30/18 Q1011
Loading
Personal Weather Stations






























Interactive Weather Map New forecast layout! Learn more

10-Day Weather Forecast

Advertisements
Track Severe Weather on mobile